X  Close Metar Aviation Weather Data     EHKD De Kooy Airport
Temperature
6°C Temperature
5°C Dewpoint
93% Humidity



Wind
11 KM/H
7 MPH
3 M/S
6 KTS



150°
SSE
Current Conditions

Partly Cloudy Partly Cloudy
Pressure 998.98 (hPa) - 29.5 (inHg)
Visibility 6 (mile) - 9.7 (km)
Airport
Airport-code EHKD

Location: De Kooy Airport
Distance: 34 (km)

Metar:
EHKD 011925Z AUTO 15006KT 100V170 9999 FEW032 SCT073 BKN086 06/05 Q0999 BLU NOSIG

Time: 01-03-2024 20:25 CET